SEGU/GYE METAR and TAF weather

Enter ICAO airport designator
Station Type Date Time Source
SEGU METAR 2021/05/14 06:00 UTC NOAA

SEGU 140600Z 22010KT 9999 FEW010 SCT100 22/19 Q1011 NOSIG RMK A2986


Station Type Date Time Source
SEGU Decoded METAR 2021/05/14 06:00 UTC NOAA

Guayaquil / Simon Bolivar, Ecuador (SEGU) 02-09S 079-53W 9M
May 14, 2021 - 02:00 AM EDT / 2021.05.14 0600 UTC
Wind: from the SW (220 degrees) at 12 MPH (10 KT):0
Visibility: greater than 7 mile(s):0
Sky conditions: partly cloudy
Temperature: 71 F (22 C)
Dew Point: 66 F (19 C)
Relative Humidity: 83%
Pressure (altimeter): 29.85 in. Hg (1011 hPa)
ob: SEGU 140600Z 22010KT 9999 FEW010 SCT100 22/19 Q1011 NOSIG RMK A2986
cycle: 6

Station Type Date Time Source
SEGU TAF 2021/05/14 06:41 UTC NOAA

TAF SEGU 140410Z 1406/1506 22008KT 9999 SCT020
BECMG 1412/1414 SCT023 BKN100
BECMG 1500/1502 FEW026 SCT100 TX30/1420Z TN22/1410Z

Example: see airport list